sensor_id;sensor_type;location;lat;lon;timestamp;P1;durP1;ratioP1;P2;durP2;ratioP2
71959;SDS011;59832;51.146;14.024;2022-10-16T00:00:46;14.98;;;13.25;;
71959;SDS011;59832;51.146;14.024;2022-10-16T00:03:13;17.10;;;13.07;;
71959;SDS011;59832;51.146;14.024;2022-10-16T00:05:41;15.45;;;13.18;;
71959;SDS011;59832;51.146;14.024;2022-10-16T00:08:10;15.05;;;12.88;;
71959;SDS011;59832;51.146;14.024;2022-10-16T00:10:37;15.13;;;13.48;;
71959;SDS011;59832;51.146;14.024;2022-10-16T00:13:04;16.55;;;13.30;;
71959;SDS011;59832;51.146;14.024;2022-10-16T00:15:38;17.55;;;13.95;;
71959;SDS011;59832;51.146;14.024;2022-10-16T00:18:05;13.88;;;12.32;;
71959;SDS011;59832;51.146;14.024;2022-10-16T00:20:33;16.30;;;13.75;;
71959;SDS011;59832;51.146;14.024;2022-10-16T00:23:00;16.17;;;13.52;;
71959;SDS011;59832;51.146;14.024;2022-10-16T00:25:27;14.50;;;13.00;;
71959;SDS011;59832;51.146;14.024;2022-10-16T00:27:53;15.93;;;13.37;;
71959;SDS011;59832;51.146;14.024;2022-10-16T00:30:20;19.33;;;13.47;;
71959;SDS011;59832;51.146;14.024;2022-10-16T00:32:46;17.13;;;13.97;;
71959;SDS011;59832;51.146;14.024;2022-10-16T00:35:13;17.10;;;14.05;;
71959;SDS011;59832;51.146;14.024;2022-10-16T00:37:39;16.15;;;13.85;;
71959;SDS011;59832;51.146;14.024;2022-10-16T00:40:06;18.00;;;14.20;;
71959;SDS011;59832;51.146;14.024;2022-10-16T00:42:33;16.38;;;13.65;;
71959;SDS011;59832;51.146;14.024;2022-10-16T00:44:59;14.52;;;12.98;;
71959;SDS011;59832;51.146;14.024;2022-10-16T00:47:27;16.80;;;13.87;;
71959;SDS011;59832;51.146;14.024;2022-10-16T00:50:00;15.07;;;13.40;;
71959;SDS011;59832;51.146;14.024;2022-10-16T00:52:32;19.38;;;14.77;;
71959;SDS011;59832;51.146;14.024;2022-10-16T00:55:00;17.38;;;14.57;;
71959;SDS011;59832;51.146;14.024;2022-10-16T00:57:29;19.13;;;14.85;;
71959;SDS011;59832;51.146;14.024;2022-10-16T00:59:55;18.53;;;15.23;;
71959;SDS011;59832;51.146;14.024;2022-10-16T01:02:23;19.50;;;14.90;;
71959;SDS011;59832;51.146;14.024;2022-10-16T01:04:50;18.55;;;15.18;;
71959;SDS011;59832;51.146;14.024;2022-10-16T01:10:13;19.45;;;15.43;;
71959;SDS011;59832;51.146;14.024;2022-10-16T01:13:16;20.90;;;16.45;;
71959;SDS011;59832;51.146;14.024;2022-10-16T01:15:47;18.70;;;15.75;;
71959;SDS011;59832;51.146;14.024;2022-10-16T01:18:43;20.33;;;15.85;;
71959;SDS011;59832;51.146;14.024;2022-10-16T01:21:22;19.33;;;15.05;;
71959;SDS011;59832;51.146;14.024;2022-10-16T01:27:16;19.48;;;16.00;;
71959;SDS011;59832;51.146;14.024;2022-10-16T01:32:35;19.35;;;16.55;;
71959;SDS011;59832;51.146;14.024;2022-10-16T01:40:25;18.42;;;16.27;;
71959;SDS011;59832;51.146;14.024;2022-10-16T01:42:58;19.60;;;16.48;;
71959;SDS011;59832;51.146;14.024;2022-10-16T01:45:29;21.48;;;16.75;;
71959;SDS011;59832;51.146;14.024;2022-10-16T01:47:59;19.95;;;16.70;;
71959;SDS011;59832;51.146;14.024;2022-10-16T01:50:30;17.15;;;15.40;;
71959;SDS011;59832;51.146;14.024;2022-10-16T01:53:00;20.77;;;16.60;;
71959;SDS011;59832;51.146;14.024;2022-10-16T01:55:29;17.77;;;15.68;;
71959;SDS011;59832;51.146;14.024;2022-10-16T01:57:59;19.67;;;16.58;;
71959;SDS011;59832;51.146;14.024;2022-10-16T02:00:29;24.35;;;16.90;;
71959;SDS011;59832;51.146;14.024;2022-10-16T02:07:58;18.13;;;15.90;;
71959;SDS011;59832;51.146;14.024;2022-10-16T02:10:29;18.83;;;15.73;;
71959;SDS011;59832;51.146;14.024;2022-10-16T02:13:01;19.70;;;15.88;;
71959;SDS011;59832;51.146;14.024;2022-10-16T02:15:32;17.02;;;15.23;;
71959;SDS011;59832;51.146;14.024;2022-10-16T02:17:58;16.75;;;14.98;;
71959;SDS011;59832;51.146;14.024;2022-10-16T02:20:26;15.95;;;13.95;;
71959;SDS011;59832;51.146;14.024;2022-10-16T02:22:55;16.05;;;14.35;;
71959;SDS011;59832;51.146;14.024;2022-10-16T02:25:41;16.58;;;14.23;;
71959;SDS011;59832;51.146;14.024;2022-10-16T02:28:13;15.68;;;13.95;;
71959;SDS011;59832;51.146;14.024;2022-10-16T02:30:45;16.95;;;14.38;;
71959;SDS011;59832;51.146;14.024;2022-10-16T02:33:14;16.98;;;14.02;;
71959;SDS011;59832;51.146;14.024;2022-10-16T02:35:43;21.55;;;15.00;;
71959;SDS011;59832;51.146;14.024;2022-10-16T02:38:12;15.25;;;13.65;;
71959;SDS011;59832;51.146;14.024;2022-10-16T02:40:41;17.77;;;13.73;;
71959;SDS011;59832;51.146;14.024;2022-10-16T02:43:08;15.18;;;13.57;;
71959;SDS011;59832;51.146;14.024;2022-10-16T02:45:35;15.68;;;13.45;;
71959;SDS011;59832;51.146;14.024;2022-10-16T02:48:02;15.38;;;13.77;;
71959;SDS011;59832;51.146;14.024;2022-10-16T02:50:29;15.90;;;13.70;;
71959;SDS011;59832;51.146;14.024;2022-10-16T02:52:55;15.00;;;13.48;;
71959;SDS011;59832;51.146;14.024;2022-10-16T02:55:22;15.30;;;13.60;;
71959;SDS011;59832;51.146;14.024;2022-10-16T02:57:48;14.55;;;13.05;;
71959;SDS011;59832;51.146;14.024;2022-10-16T03:00:15;15.20;;;13.60;;
71959;SDS011;59832;51.146;14.024;2022-10-16T03:02:43;15.63;;;13.70;;
71959;SDS011;59832;51.146;14.024;2022-10-16T03:05:10;16.03;;;12.63;;
71959;SDS011;59832;51.146;14.024;2022-10-16T03:07:37;14.63;;;13.18;;
71959;SDS011;59832;51.146;14.024;2022-10-16T03:10:03;13.38;;;12.02;;
71959;SDS011;59832;51.146;14.024;2022-10-16T03:12:30;14.40;;;13.05;;
71959;SDS011;59832;51.146;14.024;2022-10-16T03:14:56;14.13;;;12.75;;
71959;SDS011;59832;51.146;14.024;2022-10-16T03:17:24;13.50;;;11.85;;
71959;SDS011;59832;51.146;14.024;2022-10-16T03:19:51;13.80;;;12.05;;
71959;SDS011;59832;51.146;14.024;2022-10-16T03:22:18;13.33;;;12.13;;
71959;SDS011;59832;51.146;14.024;2022-10-16T03:24:44;14.20;;;11.70;;
71959;SDS011;59832;51.146;14.024;2022-10-16T03:27:10;13.77;;;11.43;;
71959;SDS011;59832;51.146;14.024;2022-10-16T03:29:37;13.65;;;11.88;;
71959;SDS011;59832;51.146;14.024;2022-10-16T03:32:03;13.40;;;12.10;;
71959;SDS011;59832;51.146;14.024;2022-10-16T03:34:30;12.90;;;11.60;;
71959;SDS011;59832;51.146;14.024;2022-10-16T03:36:56;15.05;;;12.40;;
71959;SDS011;59832;51.146;14.024;2022-10-16T03:39:22;12.80;;;11.52;;
71959;SDS011;59832;51.146;14.024;2022-10-16T03:41:49;13.45;;;12.05;;
71959;SDS011;59832;51.146;14.024;2022-10-16T03:44:15;13.80;;;12.40;;
71959;SDS011;59832;51.146;14.024;2022-10-16T03:46:42;13.63;;;12.00;;
71959;SDS011;59832;51.146;14.024;2022-10-16T03:49:08;13.27;;;11.88;;
71959;SDS011;59832;51.146;14.024;2022-10-16T03:51:35;12.48;;;11.27;;
71959;SDS011;59832;51.146;14.024;2022-10-16T03:54:01;14.07;;;12.63;;
71959;SDS011;59832;51.146;14.024;2022-10-16T03:56:28;12.73;;;11.50;;
71959;SDS011;59832;51.146;14.024;2022-10-16T03:58:54;12.87;;;11.67;;
71959;SDS011;59832;51.146;14.024;2022-10-16T04:01:21;15.35;;;11.93;;
71959;SDS011;59832;51.146;14.024;2022-10-16T04:03:47;13.20;;;11.80;;
71959;SDS011;59832;51.146;14.024;2022-10-16T04:06:13;13.02;;;11.73;;
71959;SDS011;59832;51.146;14.024;2022-10-16T04:08:42;14.48;;;12.95;;
71959;SDS011;59832;51.146;14.024;2022-10-16T04:11:09;12.80;;;11.57;;
71959;SDS011;59832;51.146;14.024;2022-10-16T04:13:36;14.20;;;11.70;;
71959;SDS011;59832;51.146;14.024;2022-10-16T04:16:02;13.30;;;12.00;;
71959;SDS011;59832;51.146;14.024;2022-10-16T04:18:29;13.87;;;12.47;;
71959;SDS011;59832;51.146;14.024;2022-10-16T04:20:55;13.13;;;11.82;;
71959;SDS011;59832;51.146;14.024;2022-10-16T04:23:22;12.87;;;11.67;;
71959;SDS011;59832;51.146;14.024;2022-10-16T04:28:16;13.02;;;11.73;;
71959;SDS011;59832;51.146;14.024;2022-10-16T04:30:43;11.70;;;10.70;;
71959;SDS011;59832;51.146;14.024;2022-10-16T04:33:09;11.98;;;10.98;;
71959;SDS011;59832;51.146;14.024;2022-10-16T04:35:36;11.70;;;10.50;;
71959;SDS011;59832;51.146;14.024;2022-10-16T04:38:02;11.65;;;10.55;;
71959;SDS011;59832;51.146;14.024;2022-10-16T04:40:28;11.07;;;10.03;;
71959;SDS011;59832;51.146;14.024;2022-10-16T04:42:55;12.32;;;11.13;;
71959;SDS011;59832;51.146;14.024;2022-10-16T04:45:21;20.50;;;16.33;;
71959;SDS011;59832;51.146;14.024;2022-10-16T04:47:48;13.77;;;12.38;;
71959;SDS011;59832;51.146;14.024;2022-10-16T04:50:14;12.43;;;11.15;;
71959;SDS011;59832;51.146;14.024;2022-10-16T04:52:41;11.27;;;10.17;;
71959;SDS011;59832;51.146;14.024;2022-10-16T04:55:07;11.55;;;10.45;;
71959;SDS011;59832;51.146;14.024;2022-10-16T04:57:34;11.60;;;10.50;;
71959;SDS011;59832;51.146;14.024;2022-10-16T05:00:00;12.30;;;10.63;;
71959;SDS011;59832;51.146;14.024;2022-10-16T05:02:27;11.83;;;10.63;;
71959;SDS011;59832;51.146;14.024;2022-10-16T05:04:53;10.55;;;9.65;;
71959;SDS011;59832;51.146;14.024;2022-10-16T05:07:20;11.07;;;10.15;;
71959;SDS011;59832;51.146;14.024;2022-10-16T05:09:46;11.52;;;10.45;;
71959;SDS011;59832;51.146;14.024;2022-10-16T05:12:13;11.93;;;10.82;;
71959;SDS011;59832;51.146;14.024;2022-10-16T05:14:39;11.40;;;10.48;;
71959;SDS011;59832;51.146;14.024;2022-10-16T05:17:05;12.35;;;11.25;;
71959;SDS011;59832;51.146;14.024;2022-10-16T05:19:32;13.53;;;12.27;;
71959;SDS011;59832;51.146;14.024;2022-10-16T05:21:59;14.32;;;12.25;;
71959;SDS011;59832;51.146;14.024;2022-10-16T05:24:25;13.85;;;12.55;;
71959;SDS011;59832;51.146;14.024;2022-10-16T05:26:52;16.20;;;13.98;;
71959;SDS011;59832;51.146;14.024;2022-10-16T05:29:19;16.55;;;13.13;;
71959;SDS011;59832;51.146;14.024;2022-10-16T05:31:46;16.73;;;14.10;;
71959;SDS011;59832;51.146;14.024;2022-10-16T05:34:12;15.05;;;13.52;;
71959;SDS011;59832;51.146;14.024;2022-10-16T05:36:38;20.00;;;15.90;;
71959;SDS011;59832;51.146;14.024;2022-10-16T05:39:05;16.33;;;14.73;;
71959;SDS011;59832;51.146;14.024;2022-10-16T05:41:31;16.15;;;13.70;;
71959;SDS011;59832;51.146;14.024;2022-10-16T05:43:58;19.10;;;16.33;;
71959;SDS011;59832;51.146;14.024;2022-10-16T05:46:24;18.67;;;14.97;;
71959;SDS011;59832;51.146;14.024;2022-10-16T05:48:54;18.13;;;15.05;;
71959;SDS011;59832;51.146;14.024;2022-10-16T05:51:20;17.38;;;15.48;;
71959;SDS011;59832;51.146;14.024;2022-10-16T05:53:46;16.92;;;15.00;;
71959;SDS011;59832;51.146;14.024;2022-10-16T05:56:13;16.35;;;14.50;;
71959;SDS011;59832;51.146;14.024;2022-10-16T05:58:40;18.87;;;15.67;;
71959;SDS011;59832;51.146;14.024;2022-10-16T06:03:36;15.75;;;14.13;;
71959;SDS011;59832;51.146;14.024;2022-10-16T06:06:10;15.68;;;14.05;;
71959;SDS011;59832;51.146;14.024;2022-10-16T06:08:38;15.70;;;13.77;;
71959;SDS011;59832;51.146;14.024;2022-10-16T06:11:06;14.27;;;12.88;;
71959;SDS011;59832;51.146;14.024;2022-10-16T06:13:34;13.77;;;12.38;;
71959;SDS011;59832;51.146;14.024;2022-10-16T06:16:01;13.38;;;12.05;;
71959;SDS011;59832;51.146;14.024;2022-10-16T06:18:29;13.18;;;11.88;;
71959;SDS011;59832;51.146;14.024;2022-10-16T06:20:56;12.20;;;11.10;;
71959;SDS011;59832;51.146;14.024;2022-10-16T06:23:23;12.30;;;11.20;;
71959;SDS011;59832;51.146;14.024;2022-10-16T06:25:50;11.50;;;10.50;;
71959;SDS011;59832;51.146;14.024;2022-10-16T06:28:16;10.77;;;9.87;;
71959;SDS011;59832;51.146;14.024;2022-10-16T06:30:43;11.10;;;10.10;;
71959;SDS011;59832;51.146;14.024;2022-10-16T06:33:10;10.43;;;9.43;;
71959;SDS011;59832;51.146;14.024;2022-10-16T06:35:37;10.77;;;9.88;;
71959;SDS011;59832;51.146;14.024;2022-10-16T06:38:03;9.95;;;9.13;;
71959;SDS011;59832;51.146;14.024;2022-10-16T06:40:29;10.15;;;9.20;;
71959;SDS011;59832;51.146;14.024;2022-10-16T06:42:56;9.70;;;8.83;;
71959;SDS011;59832;51.146;14.024;2022-10-16T06:45:22;10.20;;;9.27;;
71959;SDS011;59832;51.146;14.024;2022-10-16T06:47:49;10.02;;;9.18;;
71959;SDS011;59832;51.146;14.024;2022-10-16T06:50:15;10.50;;;9.53;;
71959;SDS011;59832;51.146;14.024;2022-10-16T06:52:42;10.38;;;9.48;;
71959;SDS011;59832;51.146;14.024;2022-10-16T06:55:08;10.00;;;9.07;;
71959;SDS011;59832;51.146;14.024;2022-10-16T06:57:34;9.15;;;8.38;;
71959;SDS011;59832;51.146;14.024;2022-10-16T07:00:01;9.97;;;9.07;;
71959;SDS011;59832;51.146;14.024;2022-10-16T07:02:27;10.03;;;9.10;;
71959;SDS011;59832;51.146;14.024;2022-10-16T07:04:54;9.15;;;8.35;;
71959;SDS011;59832;51.146;14.024;2022-10-16T07:07:22;8.60;;;7.90;;
71959;SDS011;59832;51.146;14.024;2022-10-16T07:09:50;8.07;;;7.47;;
71959;SDS011;59832;51.146;14.024;2022-10-16T07:12:17;9.05;;;8.15;;
71959;SDS011;59832;51.146;14.024;2022-10-16T07:14:43;9.05;;;8.25;;
71959;SDS011;59832;51.146;14.024;2022-10-16T07:17:10;7.75;;;7.05;;
71959;SDS011;59832;51.146;14.024;2022-10-16T07:19:36;8.13;;;7.43;;
71959;SDS011;59832;51.146;14.024;2022-10-16T07:22:03;8.40;;;7.60;;
71959;SDS011;59832;51.146;14.024;2022-10-16T07:24:29;9.47;;;7.70;;
71959;SDS011;59832;51.146;14.024;2022-10-16T07:26:56;8.63;;;7.23;;
71959;SDS011;59832;51.146;14.024;2022-10-16T07:29:22;8.07;;;7.37;;
71959;SDS011;59832;51.146;14.024;2022-10-16T07:31:49;8.23;;;7.40;;
71959;SDS011;59832;51.146;14.024;2022-10-16T07:34:17;8.45;;;7.65;;
71959;SDS011;59832;51.146;14.024;2022-10-16T07:36:47;12.57;;;7.78;;
71959;SDS011;59832;51.146;14.024;2022-10-16T07:39:17;11.88;;;7.95;;
71959;SDS011;59832;51.146;14.024;2022-10-16T07:41:43;7.57;;;6.88;;
71959;SDS011;59832;51.146;14.024;2022-10-16T07:44:10;8.67;;;7.70;;
71959;SDS011;59832;51.146;14.024;2022-10-16T07:46:36;7.50;;;6.80;;
71959;SDS011;59832;51.146;14.024;2022-10-16T07:49:03;7.82;;;7.13;;
71959;SDS011;59832;51.146;14.024;2022-10-16T07:51:30;8.07;;;6.77;;
71959;SDS011;59832;51.146;14.024;2022-10-16T07:53:56;7.68;;;7.00;;
71959;SDS011;59832;51.146;14.024;2022-10-16T07:56:23;8.23;;;7.53;;
71959;SDS011;59832;51.146;14.024;2022-10-16T07:58:50;7.75;;;7.05;;
71959;SDS011;59832;51.146;14.024;2022-10-16T08:01:17;7.70;;;7.00;;
71959;SDS011;59832;51.146;14.024;2022-10-16T08:03:45;8.30;;;7.55;;
71959;SDS011;59832;51.146;14.024;2022-10-16T08:06:13;7.60;;;6.90;;
71959;SDS011;59832;51.146;14.024;2022-10-16T08:08:40;7.70;;;7.05;;
71959;SDS011;59832;51.146;14.024;2022-10-16T08:11:06;7.77;;;7.17;;
71959;SDS011;59832;51.146;14.024;2022-10-16T08:13:33;7.85;;;7.25;;
71959;SDS011;59832;51.146;14.024;2022-10-16T08:16:00;8.13;;;7.47;;
71959;SDS011;59832;51.146;14.024;2022-10-16T08:18:27;7.22;;;6.72;;
71959;SDS011;59832;51.146;14.024;2022-10-16T08:20:57;8.83;;;7.23;;
71959;SDS011;59832;51.146;14.024;2022-10-16T08:23:26;7.45;;;6.95;;
71959;SDS011;59832;51.146;14.024;2022-10-16T08:25:53;7.40;;;6.88;;
71959;SDS011;59832;51.146;14.024;2022-10-16T08:28:21;6.55;;;6.15;;
71959;SDS011;59832;51.146;14.024;2022-10-16T08:30:49;6.82;;;6.13;;
71959;SDS011;59832;51.146;14.024;2022-10-16T08:33:15;5.97;;;5.53;;
71959;SDS011;59832;51.146;14.024;2022-10-16T08:35:42;6.28;;;5.85;;
71959;SDS011;59832;51.146;14.024;2022-10-16T08:38:08;6.68;;;6.18;;
71959;SDS011;59832;51.146;14.024;2022-10-16T08:40:35;7.00;;;6.10;;
71959;SDS011;59832;51.146;14.024;2022-10-16T08:43:07;6.75;;;6.15;;
71959;SDS011;59832;51.146;14.024;2022-10-16T08:51:04;6.72;;;6.25;;
71959;SDS011;59832;51.146;14.024;2022-10-16T08:53:36;7.15;;;6.55;;
71959;SDS011;59832;51.146;14.024;2022-10-16T08:56:10;7.22;;;6.53;;
71959;SDS011;59832;51.146;14.024;2022-10-16T08:58:37;6.90;;;6.40;;
71959;SDS011;59832;51.146;14.024;2022-10-16T09:01:04;8.07;;;7.45;;
71959;SDS011;59832;51.146;14.024;2022-10-16T09:06:29;8.02;;;7.38;;
71959;SDS011;59832;51.146;14.024;2022-10-16T09:12:36;7.50;;;6.90;;
71959;SDS011;59832;51.146;14.024;2022-10-16T09:15:14;7.50;;;6.63;;
71959;SDS011;59832;51.146;14.024;2022-10-16T09:25:48;6.30;;;5.80;;
71959;SDS011;59832;51.146;14.024;2022-10-16T09:28:17;6.78;;;6.28;;
71959;SDS011;59832;51.146;14.024;2022-10-16T09:30:44;7.03;;;6.53;;
71959;SDS011;59832;51.146;14.024;2022-10-16T09:33:14;7.15;;;6.50;;
71959;SDS011;59832;51.146;14.024;2022-10-16T09:35:44;7.22;;;6.72;;
71959;SDS011;59832;51.146;14.024;2022-10-16T09:41:18;6.85;;;6.25;;
71959;SDS011;59832;51.146;14.024;2022-10-16T09:48:48;5.85;;;5.40;;
71959;SDS011;59832;51.146;14.024;2022-10-16T09:51:33;5.93;;;5.53;;
71959;SDS011;59832;51.146;14.024;2022-10-16T09:54:11;5.88;;;5.47;;
71959;SDS011;59832;51.146;14.024;2022-10-16T09:56:40;6.80;;;4.90;;
71959;SDS011;59832;51.146;14.024;2022-10-16T09:59:16;5.47;;;5.00;;
71959;SDS011;59832;51.146;14.024;2022-10-16T10:01:47;5.47;;;5.07;;
71959;SDS011;59832;51.146;14.024;2022-10-16T10:04:20;5.07;;;4.68;;
71959;SDS011;59832;51.146;14.024;2022-10-16T10:06:49;5.20;;;4.80;;
71959;SDS011;59832;51.146;14.024;2022-10-16T10:14:25;4.75;;;4.43;;
71959;SDS011;59832;51.146;14.024;2022-10-16T10:17:02;4.50;;;4.20;;
71959;SDS011;59832;51.146;14.024;2022-10-16T10:19:37;4.30;;;4.00;;
71959;SDS011;59832;51.146;14.024;2022-10-16T10:27:32;4.47;;;4.17;;
71959;SDS011;59832;51.146;14.024;2022-10-16T10:33:23;3.95;;;3.70;;
71959;SDS011;59832;51.146;14.024;2022-10-16T10:36:33;4.03;;;3.72;;
71959;SDS011;59832;51.146;14.024;2022-10-16T10:39:12;3.85;;;3.55;;
71959;SDS011;59832;51.146;14.024;2022-10-16T10:41:54;3.45;;;3.15;;
71959;SDS011;59832;51.146;14.024;2022-10-16T10:47:40;3.35;;;3.05;;
71959;SDS011;59832;51.146;14.024;2022-10-16T10:50:26;3.55;;;3.13;;
71959;SDS011;59832;51.146;14.024;2022-10-16T10:59:00;3.38;;;3.17;;
71959;SDS011;59832;51.146;14.024;2022-10-16T11:01:38;4.55;;;3.28;;
71959;SDS011;59832;51.146;14.024;2022-10-16T11:07:25;2.03;;;1.92;;
71959;SDS011;59832;51.146;14.024;2022-10-16T11:09:59;1.95;;;1.85;;
71959;SDS011;59832;51.146;14.024;2022-10-16T11:12:42;1.97;;;1.87;;
71959;SDS011;59832;51.146;14.024;2022-10-16T11:17:46;2.55;;;2.40;;
71959;SDS011;59832;51.146;14.024;2022-10-16T11:20:30;2.80;;;2.60;;
71959;SDS011;59832;51.146;14.024;2022-10-16T11:23:01;2.88;;;2.50;;
71959;SDS011;59832;51.146;14.024;2022-10-16T11:25:40;2.30;;;2.20;;
71959;SDS011;59832;51.146;14.024;2022-10-16T11:28:14;2.38;;;1.70;;
71959;SDS011;59832;51.146;14.024;2022-10-16T11:30:46;1.85;;;1.75;;
71959;SDS011;59832;51.146;14.024;2022-10-16T11:41:23;2.72;;;2.53;;
71959;SDS011;59832;51.146;14.024;2022-10-16T11:44:06;3.00;;;2.80;;
71959;SDS011;59832;51.146;14.024;2022-10-16T11:46:53;3.20;;;3.00;;
71959;SDS011;59832;51.146;14.024;2022-10-16T11:55:41;4.82;;;3.63;;
71959;SDS011;59832;51.146;14.024;2022-10-16T12:06:39;3.78;;;3.58;;
71959;SDS011;59832;51.146;14.024;2022-10-16T12:14:07;3.08;;;2.88;;
71959;SDS011;59832;51.146;14.024;2022-10-16T12:16:52;0.50;;;0.50;;
71959;SDS011;59832;51.146;14.024;2022-10-16T12:19:24;0.40;;;0.40;;
71959;SDS011;59832;51.146;14.024;2022-10-16T12:21:54;0.43;;;0.40;;
71959;SDS011;59832;51.146;14.024;2022-10-16T12:24:35;0.20;;;0.20;;
71959;SDS011;59832;51.146;14.024;2022-10-16T12:27:27;0.47;;;0.38;;
71959;SDS011;59832;51.146;14.024;2022-10-16T12:29:58;0.40;;;0.40;;
71959;SDS011;59832;51.146;14.024;2022-10-16T12:32:35;0.32;;;0.30;;
71959;SDS011;59832;51.146;14.024;2022-10-16T12:35:23;0.20;;;0.20;;
71959;SDS011;59832;51.146;14.024;2022-10-16T12:37:53;0.20;;;0.20;;
71959;SDS011;59832;51.146;14.024;2022-10-16T12:40:31;0.65;;;0.25;;
71959;SDS011;59832;51.146;14.024;2022-10-16T12:43:10;0.35;;;0.25;;
71959;SDS011;59832;51.146;14.024;2022-10-16T12:45:39;0.30;;;0.30;;
71959;SDS011;59832;51.146;14.024;2022-10-16T12:48:18;0.20;;;0.20;;
71959;SDS011;59832;51.146;14.024;2022-10-16T12:50:47;0.30;;;0.30;;
71959;SDS011;59832;51.146;14.024;2022-10-16T12:53:17;0.50;;;0.30;;
71959;SDS011;59832;51.146;14.024;2022-10-16T12:55:57;0.93;;;0.40;;
71959;SDS011;59832;51.146;14.024;2022-10-16T12:58:40;0.73;;;0.30;;
71959;SDS011;59832;51.146;14.024;2022-10-16T13:04:04;0.20;;;0.20;;
71959;SDS011;59832;51.146;14.024;2022-10-16T13:07:06;0.35;;;0.35;;
71959;SDS011;59832;51.146;14.024;2022-10-16T13:15:41;0.40;;;0.40;;
71959;SDS011;59832;51.146;14.024;2022-10-16T13:26:26;0.30;;;0.30;;
71959;SDS011;59832;51.146;14.024;2022-10-16T13:29:00;0.30;;;0.30;;
71959;SDS011;59832;51.146;14.024;2022-10-16T13:31:27;0.30;;;0.30;;
71959;SDS011;59832;51.146;14.024;2022-10-16T13:33:56;0.43;;;0.40;;
71959;SDS011;59832;51.146;14.024;2022-10-16T13:36:27;0.30;;;0.30;;
71959;SDS011;59832;51.146;14.024;2022-10-16T13:41:58;1.35;;;0.50;;
71959;SDS011;59832;51.146;14.024;2022-10-16T13:44:28;0.40;;;0.40;;
71959;SDS011;59832;51.146;14.024;2022-10-16T13:47:01;0.95;;;0.50;;
71959;SDS011;59832;51.146;14.024;2022-10-16T13:49:28;0.60;;;0.57;;
71959;SDS011;59832;51.146;14.024;2022-10-16T13:51:55;0.63;;;0.63;;
71959;SDS011;59832;51.146;14.024;2022-10-16T13:54:26;0.80;;;0.75;;
71959;SDS011;59832;51.146;14.024;2022-10-16T13:56:54;0.82;;;0.73;;
71959;SDS011;59832;51.146;14.024;2022-10-16T13:59:34;0.57;;;0.57;;
71959;SDS011;59832;51.146;14.024;2022-10-16T14:02:10;0.60;;;0.60;;
71959;SDS011;59832;51.146;14.024;2022-10-16T14:04:46;1.50;;;0.70;;
71959;SDS011;59832;51.146;14.024;2022-10-16T14:07:23;0.60;;;0.60;;
71959;SDS011;59832;51.146;14.024;2022-10-16T14:09:52;0.50;;;0.50;;
71959;SDS011;59832;51.146;14.024;2022-10-16T14:12:19;0.50;;;0.50;;
71959;SDS011;59832;51.146;14.024;2022-10-16T14:14:53;0.40;;;0.40;;
71959;SDS011;59832;51.146;14.024;2022-10-16T14:17:22;0.40;;;0.40;;
71959;SDS011;59832;51.146;14.024;2022-10-16T14:19:53;0.50;;;0.50;;
71959;SDS011;59832;51.146;14.024;2022-10-16T14:25:13;0.40;;;0.40;;
71959;SDS011;59832;51.146;14.024;2022-10-16T14:27:55;0.50;;;0.50;;
71959;SDS011;59832;51.146;14.024;2022-10-16T14:30:24;1.90;;;1.80;;
71959;SDS011;59832;51.146;14.024;2022-10-16T14:35:30;2.22;;;2.03;;
71959;SDS011;59832;51.146;14.024;2022-10-16T14:37:59;2.22;;;1.92;;
71959;SDS011;59832;51.146;14.024;2022-10-16T14:40:31;2.30;;;2.10;;
71959;SDS011;59832;51.146;14.024;2022-10-16T14:43:00;0.70;;;0.70;;
71959;SDS011;59832;51.146;14.024;2022-10-16T14:45:28;0.85;;;0.70;;
71959;SDS011;59832;51.146;14.024;2022-10-16T14:47:57;0.70;;;0.70;;
71959;SDS011;59832;51.146;14.024;2022-10-16T14:50:26;0.63;;;0.60;;
71959;SDS011;59832;51.146;14.024;2022-10-16T14:52:52;0.82;;;0.60;;
71959;SDS011;59832;51.146;14.024;2022-10-16T14:55:19;0.50;;;0.50;;
71959;SDS011;59832;51.146;14.024;2022-10-16T14:57:46;0.50;;;0.50;;
71959;SDS011;59832;51.146;14.024;2022-10-16T15:00:23;0.88;;;0.57;;
71959;SDS011;59832;51.146;14.024;2022-10-16T15:02:50;0.60;;;0.60;;
71959;SDS011;59832;51.146;14.024;2022-10-16T15:07:46;1.00;;;1.00;;
71959;SDS011;59832;51.146;14.024;2022-10-16T15:10:13;1.15;;;1.00;;
71959;SDS011;59832;51.146;14.024;2022-10-16T15:12:40;1.20;;;1.10;;
71959;SDS011;59832;51.146;14.024;2022-10-16T15:15:31;1.60;;;1.50;;
71959;SDS011;59832;51.146;14.024;2022-10-16T15:18:00;1.98;;;1.50;;
71959;SDS011;59832;51.146;14.024;2022-10-16T15:20:35;2.33;;;2.13;;
71959;SDS011;59832;51.146;14.024;2022-10-16T15:23:04;4.97;;;4.47;;
71959;SDS011;59832;51.146;14.024;2022-10-16T15:25:41;5.97;;;4.45;;
71959;SDS011;59832;51.146;14.024;2022-10-16T15:28:10;4.68;;;3.80;;
71959;SDS011;59832;51.146;14.024;2022-10-16T15:33:04;5.35;;;4.43;;
71959;SDS011;59832;51.146;14.024;2022-10-16T15:35:31;3.80;;;3.10;;
71959;SDS011;59832;51.146;14.024;2022-10-16T15:37:58;2.42;;;2.00;;
71959;SDS011;59832;51.146;14.024;2022-10-16T15:40:24;3.03;;;2.28;;
71959;SDS011;59832;51.146;14.024;2022-10-16T15:42:51;2.40;;;2.20;;
71959;SDS011;59832;51.146;14.024;2022-10-16T15:45:17;4.47;;;2.33;;
71959;SDS011;59832;51.146;14.024;2022-10-16T15:47:45;2.42;;;2.22;;
71959;SDS011;59832;51.146;14.024;2022-10-16T15:50:12;3.90;;;2.08;;
71959;SDS011;59832;51.146;14.024;2022-10-16T15:52:40;2.17;;;2.08;;
71959;SDS011;59832;51.146;14.024;2022-10-16T15:55:12;3.78;;;2.05;;
71959;SDS011;59832;51.146;14.024;2022-10-16T15:57:39;3.10;;;2.63;;
71959;SDS011;59832;51.146;14.024;2022-10-16T16:00:10;8.30;;;7.03;;
71959;SDS011;59832;51.146;14.024;2022-10-16T16:02:41;10.70;;;8.65;;
71959;SDS011;59832;51.146;14.024;2022-10-16T16:07:37;7.47;;;6.75;;
71959;SDS011;59832;51.146;14.024;2022-10-16T16:10:05;5.57;;;5.07;;
71959;SDS011;59832;51.146;14.024;2022-10-16T16:12:33;6.30;;;5.70;;
71959;SDS011;59832;51.146;14.024;2022-10-16T16:15:01;8.55;;;7.10;;
71959;SDS011;59832;51.146;14.024;2022-10-16T16:17:31;6.60;;;5.68;;
71959;SDS011;59832;51.146;14.024;2022-10-16T16:19:59;6.03;;;5.05;;
71959;SDS011;59832;51.146;14.024;2022-10-16T16:22:25;7.60;;;5.13;;
71959;SDS011;59832;51.146;14.024;2022-10-16T16:24:53;6.68;;;6.03;;
71959;SDS011;59832;51.146;14.024;2022-10-16T16:27:19;7.97;;;5.93;;
71959;SDS011;59832;51.146;14.024;2022-10-16T16:29:46;6.45;;;5.85;;
71959;SDS011;59832;51.146;14.024;2022-10-16T16:32:13;5.47;;;4.97;;
71959;SDS011;59832;51.146;14.024;2022-10-16T16:34:40;6.43;;;5.82;;
71959;SDS011;59832;51.146;14.024;2022-10-16T16:37:06;7.13;;;5.97;;
71959;SDS011;59832;51.146;14.024;2022-10-16T16:39:33;9.48;;;6.40;;
71959;SDS011;59832;51.146;14.024;2022-10-16T16:41:59;7.45;;;6.70;;
71959;SDS011;59832;51.146;14.024;2022-10-16T16:44:26;8.73;;;6.37;;
71959;SDS011;59832;51.146;14.024;2022-10-16T16:46:52;7.28;;;6.50;;
71959;SDS011;59832;51.146;14.024;2022-10-16T16:49:19;6.85;;;6.15;;
71959;SDS011;59832;51.146;14.024;2022-10-16T16:51:45;10.38;;;7.85;;
71959;SDS011;59832;51.146;14.024;2022-10-16T16:54:12;12.00;;;9.03;;
71959;SDS011;59832;51.146;14.024;2022-10-16T16:56:40;12.13;;;8.45;;
71959;SDS011;59832;51.146;14.024;2022-10-16T16:59:18;11.38;;;8.00;;